Terminal Aerodrome Forecast
Issued by NWS

Home | Current Version | Previous Version | Text Only | Print | Product List | Glossary On
Versions: 1 2 3 4 5 6 7 8 9 10 11 12 13 14 15 16 17 18 19 20 21 22 23 24
000
FTAK31 PAJN 211100
TAFAPG
TAF
PAPG 211122Z 2112/2212 00000KT P6SM BKN070
     FM211600 10008KT P6SM VCSH SCT040 OVC060
     FM212000 12011G18KT P6SM VCSH SCT020 OVC040
     FM212300 12013G21KT P6SM -RA BKN030 OVC040
     FM220800 12011KT P6SM -SHRA SCT030 OVC040
      AMD LTD TO CLD VIS AND WIND 2112/2115=

USA.gov is the U.S. government's official web portal to all federal, state and local government web resources and services.